N124TL KAVP-N38
Flight info
| Callsign | N124TL |
|---|---|
| Flight time | N/A |
| Altitude | 4500 |
| Route | VFR NORTH WEST |
| Aircraft | BE58/L-VGD/C |
Departure
| Time | 2026-04-18 11:18 |
|---|---|
| Airport | Wilkes-Barre/Scranton International Airport (KAVP) |
Arrival
| Time | N/A |
|---|---|
| Airport | N38 |
| Time | Latitude | Longitude | Altitude | Speed | Heading |
|---|---|---|---|---|---|
| 2026-04-18 11:11 | 41.33331 | -75.73118 | 914 ft | 0 kts | 123° |
| 2026-04-18 11:15 | 41.33338 | -75.73059 | 915 ft | 15 kts | 57° |
| 2026-04-18 11:15 | 41.33428 | -75.72968 | 918 ft | 17 kts | 36° |
| 2026-04-18 11:15 | 41.33485 | -75.72819 | 921 ft | 20 kts | 69° |
| 2026-04-18 11:15 | 41.33616 | -75.72694 | 925 ft | 26 kts | 33° |
| 2026-04-18 11:16 | 41.33768 | -75.72565 | 928 ft | 27 kts | 32° |
| 2026-04-18 11:16 | 41.33921 | -75.72436 | 929 ft | 18 kts | 25° |
| 2026-04-18 11:16 | 41.33970 | -75.72583 | 926 ft | 29 kts | 271° |
| 2026-04-18 11:16 | 41.33977 | -75.72852 | 921 ft | 18 kts | 274° |
| 2026-04-18 11:17 | 41.33992 | -75.72891 | 920 ft | 0 kts | 324° |
| 2026-04-18 11:17 | 41.34030 | -75.72921 | 918 ft | 17 kts | 343° |
| 2026-04-18 11:17 | 41.34059 | -75.72860 | 919 ft | 32 kts | 91° |
| 2026-04-18 11:17 | 41.34047 | -75.72190 | 1047 ft | 95 kts | 92° |
| 2026-04-18 11:18 | 41.34054 | -75.71254 | 1533 ft | 107 kts | 89° |
| 2026-04-18 11:18 | 41.34187 | -75.70256 | 1987 ft | 121 kts | 52° |
| 2026-04-18 11:18 | 41.35068 | -75.70024 | 2113 ft | 148 kts | 339° |
| 2026-04-18 11:18 | 41.36023 | -75.70663 | 2273 ft | 160 kts | 350° |
| 2026-04-18 11:19 | 41.37089 | -75.71075 | 2342 ft | 171 kts | 308° |
| 2026-04-18 11:19 | 41.37139 | -75.72586 | 2343 ft | 161 kts | 245° |
| 2026-04-18 11:19 | 41.36447 | -75.73692 | 2159 ft | 155 kts | 218° |
| 2026-04-18 11:19 | 41.36052 | -75.74865 | 2237 ft | 136 kts | 266° |
| 2026-04-18 11:20 | 41.36016 | -75.76160 | 1978 ft | 137 kts | 266° |
| 2026-04-18 11:20 | 41.36011 | -75.77328 | 2016 ft | 117 kts | 265° |
| 2026-04-18 11:20 | 41.35976 | -75.78400 | 2399 ft | 120 kts | 263° |
| 2026-04-18 11:20 | 41.35989 | -75.79501 | 2959 ft | 121 kts | 265° |
| 2026-04-18 11:21 | 41.36038 | -75.80608 | 3507 ft | 120 kts | 265° |
| 2026-04-18 11:21 | 41.36100 | -75.81691 | 4044 ft | 118 kts | 266° |
| 2026-04-18 11:21 | 41.36155 | -75.82743 | 4542 ft | 118 kts | 266° |
| 2026-04-18 11:21 | 41.36187 | -75.84049 | 4412 ft | 162 kts | 265° |
| 2026-04-18 11:22 | 41.36399 | -75.85661 | 4388 ft | 188 kts | 283° |
| 2026-04-18 11:22 | 41.36837 | -75.87323 | 4369 ft | 189 kts | 284° |
| 2026-04-18 11:22 | 41.37266 | -75.88963 | 4370 ft | 186 kts | 283° |
| 2026-04-18 11:22 | 41.37678 | -75.90587 | 4368 ft | 185 kts | 284° |
| 2026-04-18 11:23 | 41.38086 | -75.92219 | 4366 ft | 184 kts | 283° |
| 2026-04-18 11:23 | 41.38482 | -75.93827 | 4367 ft | 183 kts | 283° |
| 2026-04-18 11:23 | 41.38880 | -75.95451 | 4364 ft | 183 kts | 283° |
| 2026-04-18 11:23 | 41.39274 | -75.97064 | 4364 ft | 182 kts | 282° |
| 2026-04-18 11:24 | 41.39667 | -75.98679 | 4360 ft | 182 kts | 282° |
| 2026-04-18 11:24 | 41.40054 | -76.00269 | 4359 ft | 181 kts | 282° |
| 2026-04-18 11:24 | 41.40442 | -76.01874 | 4361 ft | 181 kts | 282° |
| 2026-04-18 11:24 | 41.40832 | -76.03484 | 4360 ft | 181 kts | 282° |
| 2026-04-18 11:25 | 41.41218 | -76.05079 | 4359 ft | 181 kts | 282° |
| 2026-04-18 11:25 | 41.41606 | -76.06687 | 4358 ft | 181 kts | 283° |
| 2026-04-18 11:25 | 41.41993 | -76.08286 | 4355 ft | 181 kts | 282° |
| 2026-04-18 11:25 | 41.42383 | -76.09898 | 4354 ft | 181 kts | 282° |
| 2026-04-18 11:26 | 41.42769 | -76.11502 | 4362 ft | 182 kts | 282° |
| 2026-04-18 11:26 | 41.43160 | -76.13120 | 4353 ft | 182 kts | 282° |
| 2026-04-18 11:26 | 41.43546 | -76.14722 | 4354 ft | 182 kts | 282° |
| 2026-04-18 11:26 | 41.43935 | -76.16339 | 4348 ft | 181 kts | 282° |
| 2026-04-18 11:27 | 41.44314 | -76.17915 | 4349 ft | 181 kts | 282° |
| 2026-04-18 11:27 | 41.44697 | -76.19508 | 4351 ft | 180 kts | 282° |
| 2026-04-18 11:27 | 41.45084 | -76.21121 | 4352 ft | 180 kts | 282° |
| 2026-04-18 11:27 | 41.45464 | -76.22697 | 4354 ft | 180 kts | 282° |
| 2026-04-18 11:28 | 41.45845 | -76.24290 | 4358 ft | 180 kts | 282° |
| 2026-04-18 11:28 | 41.46230 | -76.25897 | 4360 ft | 180 kts | 282° |
| 2026-04-18 11:28 | 41.46608 | -76.27473 | 4355 ft | 180 kts | 282° |
| 2026-04-18 11:28 | 41.46996 | -76.29092 | 4359 ft | 181 kts | 281° |
| 2026-04-18 11:29 | 41.47374 | -76.30674 | 4360 ft | 181 kts | 282° |
| 2026-04-18 11:29 | 41.47759 | -76.32283 | 4358 ft | 181 kts | 282° |
| 2026-04-18 11:29 | 41.48140 | -76.33878 | 4358 ft | 181 kts | 282° |
| 2026-04-18 11:29 | 41.48526 | -76.35492 | 4358 ft | 181 kts | 282° |
| 2026-04-18 11:30 | 41.48910 | -76.37103 | 4358 ft | 181 kts | 282° |
| 2026-04-18 11:30 | 41.49291 | -76.38699 | 4355 ft | 181 kts | 281° |
| 2026-04-18 11:30 | 41.49672 | -76.40303 | 4352 ft | 181 kts | 282° |
| 2026-04-18 11:30 | 41.50054 | -76.41904 | 4345 ft | 180 kts | 282° |
| 2026-04-18 11:31 | 41.50432 | -76.43491 | 4347 ft | 179 kts | 281° |
| 2026-04-18 11:31 | 41.50810 | -76.45081 | 4342 ft | 179 kts | 282° |
| 2026-04-18 11:31 | 41.51183 | -76.46652 | 4352 ft | 179 kts | 282° |
| 2026-04-18 11:31 | 41.51565 | -76.48265 | 4347 ft | 180 kts | 282° |
| 2026-04-18 11:32 | 41.51939 | -76.49839 | 4350 ft | 180 kts | 282° |
| 2026-04-18 11:32 | 41.52319 | -76.51444 | 4348 ft | 180 kts | 282° |
| 2026-04-18 11:32 | 41.52702 | -76.53059 | 4346 ft | 180 kts | 281° |
| 2026-04-18 11:32 | 41.53077 | -76.54639 | 4341 ft | 181 kts | 281° |
| 2026-04-18 11:33 | 41.53458 | -76.56248 | 4334 ft | 180 kts | 281° |
| 2026-04-18 11:33 | 41.53836 | -76.57851 | 4343 ft | 180 kts | 281° |
| 2026-04-18 11:33 | 41.54215 | -76.59452 | 4340 ft | 180 kts | 282° |
| 2026-04-18 11:33 | 41.54589 | -76.61035 | 4337 ft | 179 kts | 281° |
| 2026-04-18 11:34 | 41.54964 | -76.62627 | 4337 ft | 179 kts | 281° |
| 2026-04-18 11:34 | 41.55338 | -76.64214 | 4338 ft | 179 kts | 282° |
| 2026-04-18 11:34 | 41.55717 | -76.65822 | 4340 ft | 179 kts | 281° |
| 2026-04-18 11:34 | 41.56095 | -76.67429 | 4338 ft | 179 kts | 281° |
| 2026-04-18 11:35 | 41.56473 | -76.69033 | 4335 ft | 179 kts | 280° |
| 2026-04-18 11:35 | 41.56848 | -76.70631 | 4336 ft | 179 kts | 281° |
| 2026-04-18 11:35 | 41.57218 | -76.72206 | 4342 ft | 179 kts | 281° |
| 2026-04-18 11:35 | 41.57594 | -76.73807 | 4344 ft | 179 kts | 281° |
| 2026-04-18 11:36 | 41.57971 | -76.75414 | 4342 ft | 179 kts | 280° |
| 2026-04-18 11:36 | 41.58340 | -76.76986 | 4334 ft | 179 kts | 280° |
| 2026-04-18 11:36 | 41.58715 | -76.78588 | 4348 ft | 178 kts | 281° |
| 2026-04-18 11:36 | 41.59084 | -76.80160 | 4379 ft | 177 kts | 280° |
| 2026-04-18 11:37 | 41.59452 | -76.81738 | 4376 ft | 177 kts | 281° |
| 2026-04-18 11:37 | 41.59817 | -76.83299 | 4370 ft | 177 kts | 280° |
| 2026-04-18 11:37 | 41.60188 | -76.84886 | 4372 ft | 177 kts | 281° |
| 2026-04-18 11:37 | 41.60556 | -76.86463 | 4378 ft | 177 kts | 281° |
| 2026-04-18 11:38 | 41.60922 | -76.88028 | 4378 ft | 178 kts | 279° |
| 2026-04-18 11:38 | 41.61291 | -76.89613 | 4374 ft | 178 kts | 280° |
| 2026-04-18 11:38 | 41.61660 | -76.91199 | 4375 ft | 178 kts | 280° |
| 2026-04-18 11:38 | 41.62027 | -76.92777 | 4380 ft | 178 kts | 280° |
| 2026-04-18 11:39 | 41.62393 | -76.94349 | 4380 ft | 178 kts | 280° |
| 2026-04-18 11:39 | 41.62765 | -76.95946 | 4378 ft | 178 kts | 280° |
| 2026-04-18 11:39 | 41.63132 | -76.97526 | 4386 ft | 179 kts | 281° |
| 2026-04-18 11:39 | 41.63501 | -76.99116 | 4380 ft | 179 kts | 281° |
| 2026-04-18 11:40 | 41.63873 | -77.00717 | 4370 ft | 178 kts | 280° |
| 2026-04-18 11:40 | 41.64238 | -77.02292 | 4366 ft | 177 kts | 280° |
| 2026-04-18 11:40 | 41.64603 | -77.03870 | 4368 ft | 177 kts | 280° |
| 2026-04-18 11:40 | 41.64964 | -77.05426 | 4370 ft | 177 kts | 279° |
| 2026-04-18 11:41 | 41.65328 | -77.07003 | 4371 ft | 177 kts | 280° |
| 2026-04-18 11:41 | 41.65694 | -77.08588 | 4364 ft | 177 kts | 280° |
| 2026-04-18 11:41 | 41.66061 | -77.10173 | 4367 ft | 177 kts | 280° |
| 2026-04-18 11:41 | 41.66422 | -77.11736 | 4367 ft | 177 kts | 279° |
| 2026-04-18 11:42 | 41.66785 | -77.13314 | 4360 ft | 177 kts | 280° |
| 2026-04-18 11:42 | 41.67148 | -77.14885 | 4363 ft | 177 kts | 280° |
| 2026-04-18 11:42 | 41.67513 | -77.16470 | 4356 ft | 177 kts | 279° |
| 2026-04-18 11:42 | 41.67881 | -77.18066 | 4355 ft | 178 kts | 279° |
| 2026-04-18 11:43 | 41.68245 | -77.19648 | 4364 ft | 177 kts | 279° |
| 2026-04-18 11:43 | 41.68606 | -77.21222 | 4363 ft | 177 kts | 280° |
| 2026-04-18 11:43 | 41.69042 | -77.22781 | 4363 ft | 181 kts | 289° |
| 2026-04-18 11:43 | 41.69714 | -77.24229 | 4355 ft | 188 kts | 309° |
| 2026-04-18 11:44 | 41.70779 | -77.25269 | 4357 ft | 191 kts | 322° |
| 2026-04-18 11:44 | 41.71912 | -77.26234 | 4362 ft | 191 kts | 322° |
| 2026-04-18 11:44 | 41.73051 | -77.27175 | 4356 ft | 192 kts | 322° |
| 2026-04-18 11:44 | 41.74217 | -77.28130 | 4121 ft | 206 kts | 323° |
| 2026-04-18 11:45 | 41.75435 | -77.29144 | 3706 ft | 209 kts | 325° |
| 2026-04-18 11:45 | 41.76774 | -77.29900 | 3552 ft | 204 kts | 335° |
| 2026-04-18 11:45 | 41.77976 | -77.30806 | 3586 ft | 193 kts | 305° |
| 2026-04-18 11:45 | 41.78502 | -77.32348 | 3579 ft | 176 kts | 269° |
| 2026-04-18 11:46 | 41.78577 | -77.33965 | 3576 ft | 170 kts | 257° |
| 2026-04-18 11:46 | 41.78423 | -77.35520 | 3603 ft | 167 kts | 253° |
| 2026-04-18 11:46 | 41.78233 | -77.37055 | 3628 ft | 169 kts | 251° |
| 2026-04-18 11:46 | 41.77843 | -77.38521 | 3419 ft | 170 kts | 242° |
| 2026-04-18 11:47 | 41.77365 | -77.39945 | 3051 ft | 156 kts | 230° |
| 2026-04-18 11:47 | 41.76717 | -77.41066 | 2725 ft | 144 kts | 219° |
| 2026-04-18 11:47 | 41.75993 | -77.41959 | 2555 ft | 148 kts | 217° |
| 2026-04-18 11:47 | 41.75176 | -77.42825 | 2535 ft | 148 kts | 212° |
| 2026-04-18 11:48 | 41.74242 | -77.43230 | 2643 ft | 137 kts | 173° |
| 2026-04-18 11:48 | 41.73391 | -77.42708 | 2660 ft | 141 kts | 146° |
| 2026-04-18 11:48 | 41.72715 | -77.41706 | 2595 ft | 151 kts | 128° |
| 2026-04-18 11:48 | 41.72274 | -77.40417 | 2689 ft | 151 kts | 110° |
| 2026-04-18 11:49 | 41.72438 | -77.39020 | 2801 ft | 164 kts | 66° |
| 2026-04-18 11:49 | 41.73468 | -77.38368 | 2688 ft | 176 kts | 353° |
| 2026-04-18 11:49 | 41.74216 | -77.39258 | 2732 ft | 134 kts | 261° |
| 2026-04-18 11:49 | 41.74107 | -77.40403 | 2725 ft | 124 kts | 249° |
| 2026-04-18 11:50 | 41.74097 | -77.41644 | 2592 ft | 137 kts | 261° |
| 2026-04-18 11:50 | 41.73732 | -77.42632 | 2526 ft | 118 kts | 199° |
| 2026-04-18 11:50 | 41.72945 | -77.42786 | 2417 ft | 114 kts | 170° |
| 2026-04-18 11:50 | 41.72616 | -77.42017 | 2419 ft | 122 kts | 84° |
| 2026-04-18 11:51 | 41.72777 | -77.40881 | 2031 ft | 117 kts | 96° |
| 2026-04-18 11:51 | 41.72783 | -77.39967 | 1889 ft | 77 kts | 89° |
| 2026-04-18 11:51 | 41.72792 | -77.39552 | 1889 ft | 28 kts | 90° |
| 2026-04-18 11:51 | 41.72801 | -77.39236 | 1885 ft | 37 kts | 89° |
| 2026-04-18 11:52 | 41.72772 | -77.39077 | 1886 ft | 11 kts | 154° |
| 2026-04-18 11:52 | 41.72743 | -77.39027 | 1887 ft | 7 kts | 71° |
| 2026-04-18 11:52 | 41.72732 | -77.39011 | 1887 ft | 3 kts | 287° |
| 2026-04-18 11:52 | 41.72732 | -77.39021 | 1887 ft | 0 kts | 265° |